Time;durP1;ratioP1;P1;durP2;ratioP2;P2;SDS_P1;SDS_P2;PMS_P1;PMS_P2;Temp;Humidity;BMP_temperature;BMP_pressure;BME280_temperature;BME280_humidity;BME280_pressure;Samples;Min_cycle;Max_cycle;Signal;HPM_P1;HPM_P2
2023/12/22 00:03:27;;;;;;;1081.13;678.92;;;;;;;19.74;37.62;99709.28;5095717;27;20443;-66
2023/12/22 00:06:25;;;;;;;1083.63;683.17;;;;;;;19.78;37.62;99710.50;5101013;28;20100;-66
2023/12/22 00:08:51;;;;;;;1108.07;699.65;;;;;;;19.78;37.50;99708.69;5095498;28;20389;-66
2023/12/22 00:11:16;;;;;;;1117.13;701.85;;;;;;;19.77;37.62;99704.41;5097478;28;20096;-66
2023/12/22 00:13:42;;;;;;;1108.95;690.95;;;;;;;19.72;37.59;99706.03;5098349;28;20051;-66
2023/12/22 00:16:07;;;;;;;1077.22;672.78;;;;;;;19.75;37.64;99717.03;5099255;28;20549;-66
2023/12/22 00:18:33;;;;;;;1161.22;733.22;;;;;;;19.74;37.64;99702.16;5095690;27;20047;-66
2023/12/22 00:20:58;;;;;;;1313.90;836.45;;;;;;;19.73;37.57;99691.81;5098899;27;20047;-66
2023/12/22 00:23:24;;;;;;;1251.22;806.40;;;;;;;19.72;37.73;99698.09;5103488;27;20115;-66
2023/12/22 00:25:49;;;;;;;1275.47;811.95;;;;;;;19.70;37.50;99742.41;5096351;28;20479;-66
2023/12/22 00:28:14;;;;;;;1322.18;845.70;;;;;;;19.67;37.40;99742.81;5101867;28;20032;-66
2023/12/22 00:30:40;;;;;;;1287.63;819.20;;;;;;;19.65;37.52;99732.47;5100331;27;20050;-66
2023/12/22 00:33:06;;;;;;;1297.05;818.72;;;;;;;19.52;37.26;99717.41;5093415;28;20100;-66
2023/12/22 00:35:31;;;;;;;1373.28;893.40;;;;;;;19.54;37.20;99727.78;5098691;28;20043;-66
2023/12/22 00:37:57;;;;;;;1374.43;888.67;;;;;;;19.60;37.23;99753.41;5097046;27;20032;-66
2023/12/22 00:40:22;;;;;;;1357.18;861.65;;;;;;;19.58;37.36;99766.00;5097464;28;20047;-66
2023/12/22 00:42:48;;;;;;;1396.95;901.85;;;;;;;19.49;37.34;99707.25;5097300;28;20062;-66
2023/12/22 00:45:13;;;;;;;1371.10;872.53;;;;;;;19.54;37.30;99712.75;5099271;28;20039;-66
2023/12/22 00:47:39;;;;;;;1106.80;691.50;;;;;;;19.55;37.16;99732.06;5099543;27;20109;-66
2023/12/22 00:50:05;;;;;;;1078.18;675.80;;;;;;;19.44;37.18;99730.00;5097565;27;20028;-66
2023/12/22 00:52:31;;;;;;;1068.05;670.67;;;;;;;19.50;37.33;99759.03;5099514;27;20474;-66
2023/12/22 00:54:57;;;;;;;1302.88;819.33;;;;;;;19.49;37.11;99783.81;5091024;27;20028;-66
2023/12/22 00:57:23;;;;;;;1196.47;748.28;;;;;;;19.48;36.86;99781.38;5093281;27;20733;-66
2023/12/22 00:59:48;;;;;;;1050.72;658.25;;;;;;;19.35;36.95;99774.25;5096400;27;20107;-66
2023/12/22 01:02:18;;;;;;;1046.60;657.72;;;;;;;19.43;37.06;99742.41;5094635;27;20028;-66
2023/12/22 01:04:44;;;;;;;1073.60;666.20;;;;;;;19.43;36.68;99758.25;5095008;28;20455;-66
2023/12/22 01:07:10;;;;;;;1090.60;672.50;;;;;;;19.43;36.60;99745.03;5099424;28;20044;-66
2023/12/22 01:09:37;;;;;;;1087.78;673.63;;;;;;;19.38;36.68;99760.66;5098557;27;20052;-66
2023/12/22 01:12:04;;;;;;;1099.70;680.28;;;;;;;19.30;36.69;99745.03;5095163;28;20103;-66
2023/12/22 01:14:30;;;;;;;1095.15;676.97;;;;;;;19.37;36.77;99758.22;5098820;27;20039;-66
2023/12/22 01:16:56;;;;;;;1090.93;676.03;;;;;;;19.44;36.50;99767.78;5092733;28;20126;-66
2023/12/22 01:19:22;;;;;;;20.25;11.55;;;;;;;19.51;36.58;99767.78;5096634;28;20033;-66
2023/12/22 01:21:47;;;;;;;682.05;419.38;;;;;;;19.50;36.49;99766.16;5096257;28;20148;-66
2023/12/22 01:24:13;;;;;;;5.13;1.90;;;;;;;19.58;36.70;99768.63;5095940;27;20039;-66
2023/12/22 01:26:38;;;;;;;4.25;1.80;;;;;;;19.56;36.76;99768.81;5096754;28;20047;-66
2023/12/22 01:29:04;;;;;;;5.80;2.05;;;;;;;19.56;36.67;99776.72;5098351;28;20054;-66
2023/12/22 01:31:30;;;;;;;7.65;1.60;;;;;;;19.50;36.58;99772.25;5093450;28;20899;-66
2023/12/22 01:33:55;;;;;;;7.40;2.08;;;;;;;19.49;36.58;99780.38;5093231;28;20040;-66
2023/12/22 01:36:21;;;;;;;4.10;1.60;;;;;;;19.51;36.70;99763.31;5094222;27;20089;-66
2023/12/22 01:38:46;;;;;;;3.47;1.60;;;;;;;19.48;36.80;99763.72;5098004;28;20032;-66
2023/12/22 01:41:12;;;;;;;6.25;1.70;;;;;;;19.32;36.85;99756.19;5096908;28;20054;-66
2023/12/22 01:43:37;;;;;;;5.18;1.90;;;;;;;19.41;36.70;99775.31;5099064;27;20073;-66
2023/12/22 01:46:04;;;;;;;6.80;2.00;;;;;;;19.44;36.91;99786.25;5098526;27;20059;-66
2023/12/22 01:48:30;;;;;;;6.50;2.00;;;;;;;19.12;36.93;99729.78;5099274;28;20047;-66
2023/12/22 01:50:58;;;;;;;5.20;1.98;;;;;;;19.44;36.75;99809.22;5098082;27;20112;-66
2023/12/22 01:53:25;;;;;;;8.18;2.30;;;;;;;19.25;36.59;99808.97;5095136;28;20078;-66
2023/12/22 01:55:52;;;;;;;4.28;1.90;;;;;;;19.36;36.81;99785.63;5095758;27;20483;-66
2023/12/22 01:58:19;;;;;;;6.43;2.42;;;;;;;19.39;36.65;99795.78;5091218;28;20052;-66
2023/12/22 02:00:46;;;;;;;6.45;2.15;;;;;;;19.38;36.71;99791.50;5097215;28;20040;-66
2023/12/22 02:03:12;;;;;;;8.77;2.50;;;;;;;19.38;36.76;99794.97;5093145;27;20035;-66
2023/12/22 02:05:41;;;;;;;6.20;2.00;;;;;;;19.38;36.71;99802.06;5092921;28;20050;-66
2023/12/22 02:08:06;;;;;;;6.90;2.20;;;;;;;19.36;36.91;99781.16;5093171;28;20046;-66
2023/12/22 02:10:32;;;;;;;5.15;1.60;;;;;;;19.29;36.81;99786.44;5093577;27;20035;-66
2023/12/22 02:12:57;;;;;;;9.05;2.65;;;;;;;19.34;37.01;99777.91;5100769;28;20039;-66
2023/12/22 02:15:23;;;;;;;6.90;2.30;;;;;;;19.26;36.90;99762.28;5091958;28;20040;-66
2023/12/22 02:18:12;;;;;;;6.95;2.38;;;;;;;19.34;37.03;99783.19;5092293;28;20586;-66
2023/12/22 02:20:38;;;;;;;5.37;1.90;;;;;;;19.36;37.04;99769.78;5094283;28;20052;-66
2023/12/22 02:23:03;;;;;;;7.05;2.55;;;;;;;19.36;37.16;99772.44;5092736;27;20043;-66
2023/12/22 02:25:29;;;;;;;5.68;2.47;;;;;;;19.36;37.10;99783.00;5090775;28;20108;-66
2023/12/22 02:28:03;;;;;;;6.07;2.03;;;;;;;19.35;37.12;99781.38;5093172;28;20070;-66
2023/12/22 02:30:48;;;;;;;4.75;1.95;;;;;;;19.35;37.11;99794.56;5096407;28;20130;-66
2023/12/22 02:33:16;;;;;;;4.35;2.05;;;;;;;19.16;37.19;99767.94;5095009;27;20614;-66
2023/12/22 02:35:42;;;;;;;6.63;2.30;;;;;;;18.91;36.95;99730.75;5093194;28;20124;-66
2023/12/22 02:38:08;;;;;;;7.90;2.63;;;;;;;19.30;37.06;99797.81;5094435;28;20123;-66
2023/12/22 02:40:35;;;;;;;6.50;1.98;;;;;;;19.37;36.79;99801.25;5096981;28;20047;-66
2023/12/22 02:43:02;;;;;;;6.63;2.10;;;;;;;19.38;37.04;99789.69;5092132;28;20125;-66
2023/12/22 02:45:27;;;;;;;6.22;2.00;;;;;;;19.40;36.96;99786.88;5098338;28;20039;-66
2023/12/22 02:47:53;;;;;;;5.00;2.00;;;;;;;19.42;36.90;99779.56;5102560;28;20044;-66
2023/12/22 02:50:18;;;;;;;7.35;2.60;;;;;;;19.44;36.97;99783.63;5095364;28;20032;-66
2023/12/22 02:52:44;;;;;;;5.60;1.70;;;;;;;19.40;37.16;99766.56;5095104;28;20142;-66
2023/12/22 02:55:09;;;;;;;6.30;2.10;;;;;;;19.27;37.08;99743.59;5093920;28;20074;-66
2023/12/22 02:57:35;;;;;;;7.05;2.20;;;;;;;19.38;37.18;99763.28;5100488;28;20046;-66
2023/12/22 03:00:01;;;;;;;3.95;1.52;;;;;;;19.27;37.27;99746.25;5092497;28;20074;-66
2023/12/22 03:02:26;;;;;;;5.80;2.35;;;;;;;19.20;37.16;99741.97;5093910;28;20032;-66
2023/12/22 03:04:52;;;;;;;5.90;2.05;;;;;;;19.22;37.34;99753.16;5094883;28;20553;-66
2023/12/22 03:07:17;;;;;;;5.53;1.88;;;;;;;19.37;37.18;99766.13;5096046;28;20125;-66
2023/12/22 03:09:43;;;;;;;5.40;1.98;;;;;;;19.36;37.31;99772.44;5095123;28;20054;-66
2023/12/22 03:12:09;;;;;;;6.25;1.92;;;;;;;19.33;37.29;99774.47;5095139;27;20731;-66
2023/12/22 03:14:36;;;;;;;5.18;2.20;;;;;;;19.32;37.49;99801.06;5092156;28;20054;-66
2023/12/22 03:17:06;;;;;;;4.78;1.83;;;;;;;19.29;37.29;99783.81;5099103;28;20411;-66
2023/12/22 03:19:32;;;;;;;5.38;2.03;;;;;;;19.21;37.35;99772.59;5093699;28;20043;-66
2023/12/22 03:21:58;;;;;;;5.70;2.10;;;;;;;19.20;37.38;99753.31;5096960;28;20055;-66
2023/12/22 03:24:24;;;;;;;6.88;2.10;;;;;;;19.35;37.17;99778.72;5097756;28;20024;-66
2023/12/22 03:26:50;;;;;;;6.55;2.55;;;;;;;19.37;37.31;99782.78;5092015;28;20044;-66
2023/12/22 03:29:17;;;;;;;5.03;1.77;;;;;;;19.31;37.29;99768.56;5102572;27;20051;-66
2023/12/22 03:31:42;;;;;;;5.88;2.15;;;;;;;19.35;37.43;99768.16;5093325;28;20110;-66
2023/12/22 03:34:08;;;;;;;3.90;1.60;;;;;;;19.29;37.41;99775.88;5099668;28;20122;-66
2023/12/22 03:36:34;;;;;;;4.32;2.03;;;;;;;19.32;37.44;99803.69;5096601;28;20490;-66
2023/12/22 03:38:59;;;;;;;4.13;1.90;;;;;;;19.31;37.54;99802.88;5101822;27;20052;-66
2023/12/22 03:41:25;;;;;;;6.95;2.13;;;;;;;19.32;37.41;99790.50;5092565;27;20039;-66
2023/12/22 03:43:50;;;;;;;7.05;2.05;;;;;;;19.29;37.55;99804.91;5102164;27;20091;-66
2023/12/22 03:46:16;;;;;;;5.20;1.92;;;;;;;19.09;37.31;99761.84;5095843;28;20112;-66
2023/12/22 03:48:41;;;;;;;4.35;1.70;;;;;;;19.27;37.24;99779.75;5098150;27;20123;-66
2023/12/22 03:51:07;;;;;;;4.75;1.80;;;;;;;19.23;37.18;99781.16;5100383;28;20039;-66
2023/12/22 03:53:32;;;;;;;4.53;1.75;;;;;;;19.22;37.12;99785.63;5100339;27;21900;-66
2023/12/22 03:59:52;;;;;;;5.68;1.63;;;;;;;19.31;36.92;99802.06;5101719;27;20064;-66
2023/12/22 04:02:18;;;;;;;2.85;1.55;;;;;;;19.46;36.76;99788.69;5097601;27;20051;-66
2023/12/22 04:04:44;;;;;;;4.55;1.83;;;;;;;19.67;36.58;99787.72;5098028;28;20028;-66
2023/12/22 04:07:09;;;;;;;3.13;1.52;;;;;;;19.68;36.49;99789.34;5095043;27;20039;-66
2023/12/22 04:09:38;;;;;;;5.45;2.00;;;;;;;19.65;36.59;99795.03;5103648;28;20047;-66
2023/12/22 04:12:04;;;;;;;7.18;2.30;;;;;;;19.61;36.71;99802.56;5095055;28;20099;-66
2023/12/22 04:14:29;;;;;;;4.50;1.83;;;;;;;19.58;36.85;99809.06;5099436;28;20609;-66
2023/12/22 04:16:56;;;;;;;5.30;2.00;;;;;;;19.54;36.88;99813.09;5099001;27;20205;-66
2023/12/22 04:19:21;;;;;;;2.85;1.50;;;;;;;19.55;37.04;99816.53;5100088;27;20039;-66
2023/12/22 04:21:47;;;;;;;5.20;1.83;;;;;;;19.50;37.16;99817.13;5097937;27;20047;-66
2023/12/22 04:24:12;;;;;;;4.65;1.77;;;;;;;19.48;37.20;99815.72;5099021;27;20356;-66
2023/12/22 04:26:38;;;;;;;6.30;1.60;;;;;;;19.47;37.16;99814.09;5099674;28;20055;-66
2023/12/22 04:29:03;;;;;;;3.78;2.08;;;;;;;19.45;37.28;99824.03;5097782;27;20039;-66
2023/12/22 04:31:29;;;;;;;3.22;1.60;;;;;;;19.43;37.30;99821.59;5094787;27;20024;-66
2023/12/22 04:33:55;;;;;;;5.47;1.70;;;;;;;19.40;37.37;99819.38;5098750;28;20036;-66
2023/12/22 04:36:21;;;;;;;4.00;1.70;;;;;;;19.38;37.46;99831.13;5099874;27;20070;-66
2023/12/22 04:38:46;;;;;;;4.97;2.38;;;;;;;19.36;37.56;99836.59;5093158;27;20595;-66
2023/12/22 04:41:12;;;;;;;4.68;1.58;;;;;;;19.35;37.64;99824.41;5096233;28;20032;-66
2023/12/22 04:43:37;;;;;;;2.70;1.38;;;;;;;19.35;37.57;99813.03;5096855;28;20813;-67
2023/12/22 04:46:03;;;;;;;6.25;2.00;;;;;;;19.31;37.52;99810.00;5094116;27;20051;-66
2023/12/22 04:48:28;;;;;;;4.47;1.70;;;;;;;19.28;37.37;99819.13;5094501;27;20144;-66
2023/12/22 04:50:54;;;;;;;5.30;1.92;;;;;;;19.29;37.73;99831.31;5096802;28;20027;-68
2023/12/22 04:53:19;;;;;;;4.28;1.88;;;;;;;18.84;37.78;99761.56;5095943;28;20352;-66
2023/12/22 04:55:45;;;;;;;4.10;1.45;;;;;;;19.28;37.60;99839.44;5083137;28;20035;-66
2023/12/22 04:58:10;;;;;;;4.68;1.70;;;;;;;19.26;37.67;99831.72;5094412;27;20055;-66
2023/12/22 05:00:36;;;;;;;5.20;1.77;;;;;;;19.22;37.70;99843.69;5098888;27;20693;-66
2023/12/22 05:03:01;;;;;;;4.80;1.77;;;;;;;19.21;37.71;99854.44;5096842;28;20039;-66
2023/12/22 05:05:27;;;;;;;5.10;1.83;;;;;;;19.20;37.60;99839.59;5098387;28;20653;-65
2023/12/22 05:07:52;;;;;;;5.78;1.98;;;;;;;19.19;37.73;99836.16;5099924;27;20047;-66
2023/12/22 05:10:18;;;;;;;5.38;1.60;;;;;;;19.19;37.51;99840.63;5096329;28;20089;-66
2023/12/22 05:12:43;;;;;;;4.55;1.90;;;;;;;19.14;37.59;99835.13;5099413;27;20040;-66
2023/12/22 05:15:09;;;;;;;6.85;1.92;;;;;;;18.84;37.37;99789.78;5098066;28;20032;-66
2023/12/22 05:17:35;;;;;;;5.35;1.85;;;;;;;19.13;37.33;99870.44;5093782;28;20044;-66
2023/12/22 05:20:00;;;;;;;7.05;2.28;;;;;;;19.13;37.39;99862.53;5095931;28;20028;-66
2023/12/22 05:22:26;;;;;;;6.05;2.20;;;;;;;19.11;37.34;99862.72;5091472;28;20032;-66
2023/12/22 05:24:51;;;;;;;7.07;1.95;;;;;;;19.06;37.44;99841.41;5098308;28;20031;-66
2023/12/22 05:27:17;;;;;;;7.63;2.10;;;;;;;19.22;37.42;99858.72;5093169;28;20058;-66
2023/12/22 05:29:43;;;;;;;5.25;1.88;;;;;;;19.20;37.45;99863.34;5096661;28;20039;-66
2023/12/22 05:32:08;;;;;;;7.55;2.13;;;;;;;19.18;37.36;99858.28;5097030;28;20028;-66
2023/12/22 05:34:34;;;;;;;8.07;2.00;;;;;;;19.19;37.36;99849.34;5095811;28;20028;-66
2023/12/22 05:36:59;;;;;;;7.32;2.10;;;;;;;19.18;37.52;99857.47;5095683;28;21196;-66
2023/12/22 05:39:25;;;;;;;6.38;2.28;;;;;;;19.21;37.48;99851.78;5096459;28;20039;-66
2023/12/22 05:41:50;;;;;;;5.40;2.05;;;;;;;19.22;37.32;99861.34;5096748;28;20054;-66
2023/12/22 05:44:16;;;;;;;6.43;2.08;;;;;;;19.23;37.33;99873.53;5098306;28;20666;-66
2023/12/22 05:46:41;;;;;;;4.35;1.80;;;;;;;19.26;37.29;99876.59;5098060;28;20044;-66
2023/12/22 05:49:07;;;;;;;4.68;2.03;;;;;;;19.27;37.24;99883.50;5095339;28;20363;-66
2023/12/22 05:51:39;;;;;;;9.43;2.50;;;;;;;19.24;37.27;99886.53;5099884;28;20027;-66
2023/12/22 05:54:07;;;;;;;8.35;2.40;;;;;;;19.22;37.24;99885.94;5092571;28;20415;-66
2023/12/22 05:56:33;;;;;;;5.68;1.90;;;;;;;19.35;37.28;99876.41;5090216;28;20027;-66
2023/12/22 05:58:59;;;;;;;7.55;2.55;;;;;;;19.35;37.22;99881.69;5094345;27;20047;-66
2023/12/22 06:01:24;;;;;;;6.22;2.25;;;;;;;19.33;37.17;99889.81;5102995;28;20050;-66
2023/12/22 06:03:50;;;;;;;4.85;2.40;;;;;;;19.34;37.26;99899.34;5096063;28;20503;-66
2023/12/22 06:06:15;;;;;;;6.93;2.00;;;;;;;19.30;37.22;99891.00;5096407;28;20028;-66
2023/12/22 06:08:41;;;;;;;9.18;2.25;;;;;;;19.27;37.30;99877.41;5098186;28;20055;-66
2023/12/22 06:11:06;;;;;;;6.43;2.53;;;;;;;19.33;37.19;99873.97;5099670;28;20023;-66
2023/12/22 06:13:32;;;;;;;6.78;2.10;;;;;;;19.29;37.46;99885.94;5094435;28;20549;-66
2023/12/22 06:15:58;;;;;;;6.57;2.17;;;;;;;19.29;37.41;99907.88;5096989;27;20031;-66
2023/12/22 06:18:23;;;;;;;5.30;2.28;;;;;;;19.20;37.54;99887.91;5089219;27;20039;-66
2023/12/22 06:20:48;;;;;;;7.15;1.98;;;;;;;19.26;37.45;99896.91;5093569;28;20035;-66
2023/12/22 06:23:14;;;;;;;5.30;2.25;;;;;;;19.26;37.90;99907.47;5097473;28;20047;-66
2023/12/22 06:25:40;;;;;;;7.57;2.22;;;;;;;19.25;37.59;99904.00;5090538;28;20032;-66
2023/12/22 06:28:05;;;;;;;8.00;2.72;;;;;;;19.22;37.63;99911.50;5094755;27;20032;-66
2023/12/22 06:30:31;;;;;;;8.70;2.25;;;;;;;19.23;37.61;99903.38;5097637;28;20052;-66
2023/12/22 06:32:56;;;;;;;5.63;2.03;;;;;;;19.20;37.60;99911.69;5095683;27;20043;-67
2023/12/22 06:35:25;;;;;;;6.72;2.08;;;;;;;18.85;37.57;99845.00;5096674;28;21194;-66
2023/12/22 06:37:51;;;;;;;5.45;2.40;;;;;;;19.11;37.71;99881.22;5094859;28;20769;-66
2023/12/22 06:40:18;;;;;;;6.03;2.08;;;;;;;19.19;37.78;99902.13;5096121;28;20669;-66
2023/12/22 06:42:44;;;;;;;7.63;2.25;;;;;;;19.18;37.86;99892.59;5096781;28;20052;-66
2023/12/22 06:45:10;;;;;;;9.25;2.30;;;;;;;19.22;37.86;99875.38;5097099;28;20701;-66
2023/12/22 06:47:36;;;;;;;6.40;2.15;;;;;;;19.28;37.74;99885.13;5097286;28;20119;-66
2023/12/22 06:50:01;;;;;;;5.63;2.15;;;;;;;19.35;37.60;99892.22;5098081;28;20044;-66
2023/12/22 06:52:28;;;;;;;6.65;1.95;;;;;;;19.39;37.62;99878.47;5096393;28;20042;-66
2023/12/22 06:54:53;;;;;;;6.65;2.05;;;;;;;19.38;37.44;99890.00;5093250;28;20047;-66
2023/12/22 06:57:20;;;;;;;7.60;2.10;;;;;;;19.37;37.69;99890.22;5095342;28;20044;-66
2023/12/22 06:59:48;;;;;;;4.30;1.95;;;;;;;19.27;37.54;99864.22;5094526;28;20481;-65
2023/12/22 07:02:13;;;;;;;5.25;1.90;;;;;;;19.23;37.48;99877.00;5092739;28;20286;-66
2023/12/22 07:05:21;;;;;;;7.75;2.40;;;;;;;19.35;37.67;99906.25;5099461;28;20602;-66
2023/12/22 07:07:46;;;;;;;4.35;2.03;;;;;;;19.34;37.59;99915.19;5091389;28;20051;-66
2023/12/22 07:10:12;;;;;;;4.18;1.85;;;;;;;19.35;37.65;99906.25;5101926;27;20031;-66
2023/12/22 07:12:39;;;;;;;8.10;2.50;;;;;;;19.36;37.79;99899.13;5103448;27;20032;-66
2023/12/22 07:15:06;;;;;;;4.20;1.95;;;;;;;19.37;37.72;99920.06;5100909;27;20043;-66
2023/12/22 07:17:32;;;;;;;6.35;2.03;;;;;;;19.42;37.71;99928.22;5100129;28;20530;-66
2023/12/22 07:19:58;;;;;;;4.38;1.80;;;;;;;19.72;37.21;99930.53;5085278;28;20031;-67
2023/12/22 07:22:23;;;;;;;6.97;2.22;;;;;;;20.02;36.65;99925.72;5100491;27;21462;-66
2023/12/22 07:24:51;;;;;;;5.60;1.80;;;;;;;20.48;35.91;99928.41;5100045;27;20716;-66
2023/12/22 07:27:17;;;;;;;5.22;2.15;;;;;;;21.01;35.23;99920.34;5103151;28;20058;-66
2023/12/22 07:29:42;;;;;;;5.65;2.30;;;;;;;21.17;35.09;99925.13;5099909;27;20040;-66
2023/12/22 07:32:08;;;;;;;4.88;2.03;;;;;;;21.08;35.36;99915.81;5100115;28;20487;-66
2023/12/22 07:34:33;;;;;;;7.43;2.38;;;;;;;20.99;35.79;99930.28;5099533;27;20031;-66
2023/12/22 07:36:59;;;;;;;3.85;1.58;;;;;;;20.82;36.09;99937.88;5103341;28;20047;-66
2023/12/22 07:39:24;;;;;;;7.13;1.98;;;;;;;20.58;36.28;99949.94;5100859;28;20035;-66
2023/12/22 07:41:50;;;;;;;8.55;2.40;;;;;;;20.36;36.61;99919.41;5100711;27;20092;-66
2023/12/22 07:44:15;;;;;;;5.82;1.85;;;;;;;20.40;37.03;99955.81;5100524;28;20035;-66
2023/12/22 07:46:41;;;;;;;8.18;2.33;;;;;;;20.30;36.90;99951.97;5099642;28;20059;-66
2023/12/22 07:49:06;;;;;;;4.45;1.60;;;;;;;20.22;37.16;99955.63;5102085;28;20039;-66
2023/12/22 07:51:32;;;;;;;6.15;2.20;;;;;;;20.16;37.20;99951.16;5096633;28;20047;-66
2023/12/22 07:53:58;;;;;;;3.95;1.85;;;;;;;20.10;37.39;99954.56;5099986;28;20047;-66
2023/12/22 07:56:24;;;;;;;7.25;2.35;;;;;;;20.12;37.47;99952.56;5097191;27;20444;-66
2023/12/22 07:58:49;;;;;;;5.03;1.83;;;;;;;20.09;37.42;99948.47;5099177;27;20047;-66
2023/12/22 08:01:15;;;;;;;2.92;1.38;;;;;;;20.06;37.46;99942.78;5102656;27;20125;-66
2023/12/22 08:03:41;;;;;;;5.43;2.13;;;;;;;20.07;37.53;99939.94;5093437;28;20120;-66
2023/12/22 08:06:06;;;;;;;3.85;1.92;;;;;;;19.94;37.83;99928.56;5100796;27;20519;-66
2023/12/22 08:08:33;;;;;;;5.45;1.98;;;;;;;20.04;37.50;99934.25;5097609;28;20035;-66
2023/12/22 08:10:59;;;;;;;5.20;2.20;;;;;;;19.88;38.01;99928.34;5095897;28;20032;-66
2023/12/22 08:13:24;;;;;;;7.18;1.98;;;;;;;19.95;37.74;99938.13;5096970;28;20993;-67
2023/12/22 08:15:50;;;;;;;4.40;1.65;;;;;;;19.90;37.78;99949.28;5101065;28;20050;-66
2023/12/22 08:20:59;;;;;;;4.60;1.98;;;;;;;19.84;37.73;99939.53;5098888;28;20051;-66
2023/12/22 08:23:25;;;;;;;3.17;1.70;;;;;;;19.88;37.79;99954.75;5098063;28;20039;-66
2023/12/22 08:25:50;;;;;;;4.40;1.60;;;;;;;19.91;37.75;99956.19;5093664;28;20047;-67
2023/12/22 08:28:16;;;;;;;3.17;1.45;;;;;;;19.97;37.52;99944.81;5099406;27;20514;-66
2023/12/22 08:30:42;;;;;;;2.53;1.33;;;;;;;20.28;37.46;99943.41;5097528;27;20040;-64
2023/12/22 08:33:09;;;;;;;3.22;1.48;;;;;;;21.05;36.26;99932.13;5079433;28;20027;-66
2023/12/22 08:35:35;;;;;;;4.72;1.70;;;;;;;21.50;35.26;99938.25;5098406;28;20031;-64
2023/12/22 08:38:00;;;;;;;2.95;1.63;;;;;;;21.45;35.35;99927.50;5099081;28;20065;-65
2023/12/22 08:40:26;;;;;;;4.35;1.60;;;;;;;21.33;35.59;99937.13;5096882;27;20044;-64
2023/12/22 08:42:54;;;;;;;4.68;1.90;;;;;;;21.19;35.83;99939.00;5095418;28;20054;-64
2023/12/22 08:45:21;;;;;;;4.90;1.77;;;;;;;20.97;35.71;99951.66;5098337;27;20036;-65
2023/12/22 19:40:15;;;;;;;3.83;1.35;;;;;;;16.23;44.11;100205.53;5093637;27;20679;-65
2023/12/22 19:42:41;;;;;;;2.42;0.90;;;;;;;16.49;43.71;100234.13;5094243;28;20039;-64
2023/12/22 19:45:07;;;;;;;3.70;1.40;;;;;;;16.88;43.22;100236.75;5101831;28;20096;-63
2023/12/22 19:47:32;;;;;;;3.13;1.23;;;;;;;17.80;41.38;100234.88;5097585;28;20064;-64
2023/12/22 19:49:58;;;;;;;2.75;1.20;;;;;;;18.90;39.64;100237.47;5096671;28;20042;-64
2023/12/22 19:52:24;;;;;;;1.95;0.90;;;;;;;20.02;37.67;100241.03;5102225;28;20048;-64
2023/12/22 19:54:49;;;;;;;2.35;0.88;;;;;;;20.67;36.38;100238.91;5102192;28;20055;-65
2023/12/22 19:57:16;;;;;;;2.80;1.35;;;;;;;21.34;35.30;100243.28;5097174;28;20032;-71
2023/12/22 19:59:41;;;;;;;3.05;1.00;;;;;;;21.27;35.24;100245.13;5095170;28;20036;-72
2023/12/22 20:02:07;;;;;;;2.03;1.17;;;;;;;21.04;35.55;100240.19;5096524;28;20059;-69
2023/12/22 20:04:35;;;;;;;2.13;1.00;;;;;;;20.74;36.56;100264.34;5099561;28;20483;-72
2023/12/22 20:07:00;;;;;;;1.25;1.00;;;;;;;20.46;37.01;100268.91;5118986;27;20059;-71
2023/12/22 20:09:26;;;;;;;2.45;1.20;;;;;;;20.28;37.25;100273.88;5099233;27;20032;-72
2023/12/22 20:11:51;;;;;;;1.33;0.82;;;;;;;20.04;37.84;100285.75;5098842;28;20128;-73
2023/12/22 20:14:17;;;;;;;1.85;1.17;;;;;;;19.93;38.18;100289.78;5098161;27;20047;-72
2023/12/22 20:16:42;;;;;;;3.20;1.00;;;;;;;19.63;38.54;100278.56;5097390;28;20039;-72
2023/12/22 20:19:08;;;;;;;2.17;1.38;;;;;;;19.39;39.00;100277.13;5098434;28;20047;-71
2023/12/22 20:21:33;;;;;;;1.70;0.98;;;;;;;19.19;39.35;100287.47;5094962;28;20096;-69
2023/12/22 20:23:59;;;;;;;2.88;1.60;;;;;;;18.95;39.65;100274.66;5086650;28;20054;-69
2023/12/22 20:26:25;;;;;;;2.60;1.30;;;;;;;18.94;39.72;100271.19;5097037;28;20031;-69
2023/12/22 20:28:50;;;;;;;3.45;1.48;;;;;;;19.94;38.47;100317.81;5095103;28;20522;-69
2023/12/22 20:31:16;;;;;;;1.73;0.98;;;;;;;20.28;37.63;100322.28;5093788;28;21449;-68
2023/12/22 20:33:42;;;;;;;4.45;2.05;;;;;;;20.03;37.87;100329.88;5093147;28;20043;-74
2023/12/22 20:36:07;;;;;;;5.75;1.42;;;;;;;19.75;38.27;100336.97;5096384;28;20040;-71
2023/12/22 20:38:33;;;;;;;5.45;1.80;;;;;;;19.80;38.56;100347.78;5101830;28;20079;-71
2023/12/22 20:40:58;;;;;;;2.88;1.35;;;;;;;19.69;38.60;100343.81;5084368;28;20055;-71
2023/12/22 20:43:24;;;;;;;2.33;1.30;;;;;;;19.58;39.19;100361.03;5082699;28;20039;-71
2023/12/22 20:45:51;;;;;;;4.00;1.45;;;;;;;19.44;39.25;100359.22;5084780;28;20391;-71
2023/12/22 20:48:17;;;;;;;2.88;1.20;;;;;;;19.37;39.50;100357.50;5084478;28;20125;-72
2023/12/22 20:50:43;;;;;;;2.58;1.40;;;;;;;19.25;39.57;100344.81;5082287;28;20053;-72
2023/12/22 20:53:09;;;;;;;3.50;1.58;;;;;;;18.93;39.82;100314.41;5080169;28;20044;-73
2023/12/22 20:55:35;;;;;;;3.65;1.40;;;;;;;19.22;39.80;100368.13;5084627;28;20370;-72
2023/12/22 20:58:01;;;;;;;2.35;1.60;;;;;;;19.13;39.79;100359.50;5079212;28;20036;-74
2023/12/22 21:00:27;;;;;;;2.20;1.25;;;;;;;19.23;39.81;100380.31;5080249;28;20602;-73
2023/12/22 21:02:53;;;;;;;2.95;1.73;;;;;;;19.23;39.85;100378.50;5085109;28;20040;-71
2023/12/22 21:05:18;;;;;;;4.10;1.48;;;;;;;19.25;39.67;100392.34;5084103;28;20174;-73
2023/12/22 21:07:44;;;;;;;3.47;1.38;;;;;;;19.12;39.83;100376.34;5096818;27;20054;-72
2023/12/22 21:10:11;;;;;;;2.45;1.70;;;;;;;19.22;39.91;100381.34;5085307;28;20044;-72
2023/12/22 21:12:37;;;;;;;3.17;1.75;;;;;;;19.23;39.73;100393.53;5083731;28;20044;-73
2023/12/22 21:15:09;;;;;;;3.63;1.73;;;;;;;19.20;39.91;100385.97;5083249;28;20040;-71
2023/12/22 21:17:38;;;;;;;2.95;1.33;;;;;;;19.23;39.80;100394.34;5089062;28;20062;-73
2023/12/22 21:20:05;;;;;;;1.88;1.23;;;;;;;19.19;39.69;100387.78;5086788;28;20510;-71
2023/12/22 21:22:32;;;;;;;4.50;1.60;;;;;;;19.36;39.54;100382.28;5084956;28;20040;-72
2023/12/22 21:24:59;;;;;;;4.07;1.20;;;;;;;19.56;39.05;100378.84;5084279;28;20445;-72
2023/12/22 21:27:24;;;;;;;2.85;1.35;;;;;;;20.06;38.36;100397.38;5086388;28;20044;-75
2023/12/22 21:29:50;;;;;;;5.32;1.63;;;;;;;20.09;38.25;100391.72;5082876;28;20107;-72
2023/12/22 21:32:15;;;;;;;2.15;1.20;;;;;;;20.04;38.34;100402.06;5083287;28;20071;-72
2023/12/22 21:34:41;;;;;;;3.70;1.33;;;;;;;19.91;38.58;100405.38;5087454;28;20071;-72
2023/12/22 21:37:06;;;;;;;2.38;1.20;;;;;;;19.82;38.73;100406.53;5081865;28;20776;-72
2023/12/22 21:39:32;;;;;;;1.65;1.13;;;;;;;19.73;38.89;100419.03;5082254;28;20297;-71
2023/12/22 21:41:57;;;;;;;2.30;1.38;;;;;;;19.71;38.96;100420.25;5080987;28;20036;-75
2023/12/22 21:44:23;;;;;;;8.85;1.90;;;;;;;19.75;38.97;100421.50;5086032;28;20039;-72
2023/12/22 21:46:48;;;;;;;3.30;1.33;;;;;;;19.71;38.97;100431.63;5083642;28;20100;-73
2023/12/22 21:49:14;;;;;;;2.40;1.10;;;;;;;19.71;39.12;100433.47;5083613;28;20032;-71
2023/12/22 21:51:40;;;;;;;1.67;1.30;;;;;;;19.68;39.12;100450.50;5084064;28;20043;-74
2023/12/22 21:54:07;;;;;;;2.45;1.42;;;;;;;19.66;39.05;100447.22;5080675;28;20134;-73
2023/12/22 21:56:32;;;;;;;2.97;1.20;;;;;;;19.57;39.16;100440.44;5082863;28;20762;-72
2023/12/22 21:58:58;;;;;;;2.08;0.90;;;;;;;19.69;38.99;100460.06;5085112;28;20044;-72
2023/12/22 22:01:26;;;;;;;3.72;1.20;;;;;;;19.62;38.93;100472.38;5083923;28;20032;-71
2023/12/22 22:03:52;;;;;;;2.60;1.35;;;;;;;19.66;39.02;100496.59;5082952;28;20051;-72
2023/12/22 22:06:17;;;;;;;1.55;1.15;;;;;;;19.63;39.04;100502.25;5085308;28;20055;-71
2023/12/22 22:08:43;;;;;;;2.38;1.05;;;;;;;19.54;39.07;100496.25;5084169;28;20067;-74
2023/12/22 22:11:09;;;;;;;3.22;1.35;;;;;;;19.64;39.01;100506.53;5081887;28;20029;-72
2023/12/22 22:13:34;;;;;;;1.80;1.13;;;;;;;19.64;39.08;100506.53;5083805;28;20047;-72
2023/12/22 22:16:00;;;;;;;2.90;1.30;;;;;;;19.60;38.99;100511.38;5085510;28;20136;-71
2023/12/22 22:18:25;;;;;;;2.50;1.27;;;;;;;19.59;38.98;100510.56;5080943;28;20079;-73
2023/12/22 22:20:51;;;;;;;5.90;1.35;;;;;;;19.55;39.13;100505.81;5083928;28;20404;-71
2023/12/22 22:23:16;;;;;;;3.30;1.33;;;;;;;19.64;39.03;100514.47;5079457;28;20101;-70